Time;durP1;ratioP1;P1;durP2;ratioP2;P2;SDS_P1;SDS_P2;PMS_P1;PMS_P2;Temp;Humidity;BMP_temperature;BMP_pressure;BME280_temperature;BME280_humidity;BME280_pressure;Samples;Min_cycle;Max_cycle;Signal;HPM_P1;HPM_P2
2021/12/04 00:01:12;;;;;;;80.97;33.95;;;;;;;;;;5034853;28;20025;-57
2021/12/04 00:03:39;;;;;;;82.75;37.63;;;;;;;;;;5035147;28;20053;-55
2021/12/04 00:06:14;;;;;;;108.50;42.25;;;;;;;;;;5034871;28;20033;-56
2021/12/04 00:08:44;;;;;;;108.45;42.22;;;;;;;;;;5034794;28;20022;-58
2021/12/04 00:11:10;;;;;;;89.55;36.25;;;;;;;;;;5034733;28;20104;-57
2021/12/04 00:13:36;;;;;;;52.42;23.08;;;;;;;;;;5033359;28;20120;-57
2021/12/04 00:16:02;;;;;;;70.45;27.08;;;;;;;;;;5034515;28;20045;-57
2021/12/04 00:18:28;;;;;;;49.63;20.33;;;;;;;;;;5035059;28;20029;-56
2021/12/04 00:20:54;;;;;;;50.58;21.85;;;;;;;;;;5034615;28;20028;-56
2021/12/04 00:23:21;;;;;;;48.13;21.55;;;;;;;;;;5034485;28;20529;-57
2021/12/04 00:25:49;;;;;;;50.58;19.88;;;;;;;;;;5034460;28;20041;-56
2021/12/04 00:28:15;;;;;;;46.60;19.50;;;;;;;;;;5034398;28;20013;-56
2021/12/04 00:30:43;;;;;;;39.08;16.45;;;;;;;;;;5034528;28;20026;-56
2021/12/04 00:33:16;;;;;;;45.33;19.88;;;;;;;;;;5035025;28;20374;-56
2021/12/04 00:36:00;;;;;;;45.08;22.13;;;;;;;;;;5034396;28;20022;-57
2021/12/04 00:49:15;;;;;;;63.50;27.95;;;;;;;;;;5034560;28;20072;-56
2021/12/04 00:51:45;;;;;;;50.63;23.15;;;;;;;;;;5032828;28;20033;-55
2021/12/04 00:54:12;;;;;;;65.13;27.30;;;;;;;;;;5034072;28;20021;-54
2021/12/04 00:56:39;;;;;;;63.70;25.85;;;;;;;;;;5034135;28;20386;-57
2021/12/04 00:59:05;;;;;;;60.00;25.73;;;;;;;;;;5033952;28;20029;-52
2021/12/04 01:01:32;;;;;;;67.65;29.40;;;;;;;;;;5033841;28;20020;-58
2021/12/04 01:03:58;;;;;;;66.43;30.92;;;;;;;;;;5033900;28;20079;-56
2021/12/04 01:06:24;;;;;;;72.93;30.58;;;;;;;;;;5033939;28;20119;-56
2021/12/04 01:08:50;;;;;;;89.63;37.80;;;;;;;;;;5033806;28;20026;-56
2021/12/04 01:11:16;;;;;;;69.50;30.67;;;;;;;;;;5033948;28;20025;-56
2021/12/04 01:13:46;;;;;;;56.10;27.17;;;;;;;;;;5033596;28;20078;-56
2021/12/04 01:16:14;;;;;;;43.88;21.33;;;;;;;;;;5033524;28;20050;-55
2021/12/04 01:18:40;;;;;;;48.58;23.60;;;;;;;;;;5033759;28;20028;-57
2021/12/04 01:21:09;;;;;;;38.88;20.33;;;;;;;;;;5037121;28;20022;-58
2021/12/04 01:23:35;;;;;;;34.92;17.73;;;;;;;;;;5035223;28;20022;-57
2021/12/04 01:26:01;;;;;;;41.33;19.92;;;;;;;;;;5034743;28;20052;-57
2021/12/04 01:28:27;;;;;;;50.72;24.63;;;;;;;;;;5033403;28;20025;-55
2021/12/04 01:30:53;;;;;;;58.33;23.23;;;;;;;;;;5033415;28;20021;-57
2021/12/04 01:33:19;;;;;;;60.35;26.13;;;;;;;;;;5033572;28;20031;-56
2021/12/04 01:35:45;;;;;;;50.22;22.85;;;;;;;;;;5033289;28;20072;-56
2021/12/04 01:38:11;;;;;;;50.78;23.98;;;;;;;;;;5033596;28;20030;-56
2021/12/04 01:40:38;;;;;;;44.78;20.33;;;;;;;;;;5033538;28;20051;-56
2021/12/04 01:43:05;;;;;;;43.08;20.60;;;;;;;;;;5033180;28;20079;-56
2021/12/04 01:45:31;;;;;;;42.80;20.20;;;;;;;;;;5033715;28;20025;-55
2021/12/04 01:48:01;;;;;;;43.97;19.92;;;;;;;;;;5033360;28;20456;-55
2021/12/04 01:50:27;;;;;;;42.42;19.65;;;;;;;;;;5031964;28;20198;-55
2021/12/04 01:52:56;;;;;;;35.28;17.70;;;;;;;;;;5036355;28;20025;-55
2021/12/04 01:55:30;;;;;;;41.40;19.52;;;;;;;;;;5037257;28;20032;-55
2021/12/04 01:57:57;;;;;;;36.97;17.17;;;;;;;;;;5037136;28;20096;-54
2021/12/04 02:00:23;;;;;;;39.65;19.58;;;;;;;;;;5037435;28;20068;-55
2021/12/04 02:02:49;;;;;;;36.20;17.98;;;;;;;;;;5035878;28;20120;-54
2021/12/04 02:05:15;;;;;;;42.03;19.08;;;;;;;;;;5037283;28;20543;-55
2021/12/04 02:07:41;;;;;;;37.38;17.75;;;;;;;;;;5037236;28;20083;-55
2021/12/04 02:10:08;;;;;;;42.25;20.42;;;;;;;;;;5037006;28;20024;-56
2021/12/04 02:12:34;;;;;;;36.42;20.05;;;;;;;;;;5036866;28;20029;-54
2021/12/04 02:15:02;;;;;;;30.67;17.75;;;;;;;;;;5036958;28;20037;-55
2021/12/04 02:17:29;;;;;;;34.55;18.85;;;;;;;;;;5036961;28;20030;-57
2021/12/04 02:19:55;;;;;;;39.97;19.45;;;;;;;;;;5037439;28;20527;-55
2021/12/04 02:22:21;;;;;;;37.85;19.98;;;;;;;;;;5036824;28;20083;-57
2021/12/04 02:24:47;;;;;;;37.30;19.70;;;;;;;;;;5036831;28;20025;-57
2021/12/04 02:27:13;;;;;;;33.30;15.90;;;;;;;;;;5036555;28;20087;-56
2021/12/04 02:29:46;;;;;;;36.55;18.40;;;;;;;;;;5036762;28;20424;-56
2021/12/04 02:32:13;;;;;;;35.53;17.23;;;;;;;;;;5036681;28;20025;-55
2021/12/04 02:34:39;;;;;;;30.88;15.10;;;;;;;;;;5036924;28;20424;-57
2021/12/04 02:37:07;;;;;;;35.85;16.73;;;;;;;;;;5036528;28;20068;-56
2021/12/04 02:39:35;;;;;;;34.60;16.75;;;;;;;;;;5035464;28;20030;-56
2021/12/04 02:42:02;;;;;;;36.58;17.30;;;;;;;;;;5036251;28;20021;-55
2021/12/04 02:44:36;;;;;;;33.80;16.50;;;;;;;;;;5036525;28;20059;-54
2021/12/04 02:47:05;;;;;;;34.38;17.33;;;;;;;;;;5036364;28;20166;-56
2021/12/04 02:49:31;;;;;;;35.90;19.33;;;;;;;;;;5036441;28;20017;-54
2021/12/04 02:52:01;;;;;;;36.67;18.88;;;;;;;;;;5036269;28;20079;-52
2021/12/04 02:54:28;;;;;;;33.72;17.52;;;;;;;;;;5036334;28;20109;-54
2021/12/04 02:56:54;;;;;;;33.67;17.38;;;;;;;;;;5036235;28;20033;-55
2021/12/04 02:59:20;;;;;;;33.10;16.75;;;;;;;;;;5036288;28;20021;-55
2021/12/04 03:01:46;;;;;;;30.15;16.65;;;;;;;;;;5036437;28;20025;-55
2021/12/04 03:04:13;;;;;;;35.38;16.13;;;;;;;;;;5034880;28;20028;-56
2021/12/04 03:06:43;;;;;;;29.85;15.75;;;;;;;;;;5035925;28;20037;-55
2021/12/04 03:09:09;;;;;;;32.83;15.75;;;;;;;;;;5034762;28;20021;-56
2021/12/04 03:11:35;;;;;;;33.83;16.77;;;;;;;;;;5035979;28;20026;-51
2021/12/04 03:14:01;;;;;;;31.98;15.50;;;;;;;;;;5035645;28;20066;-56
2021/12/04 03:16:27;;;;;;;32.58;16.05;;;;;;;;;;5035857;28;20037;-56
2021/12/04 03:18:54;;;;;;;29.83;15.52;;;;;;;;;;5035827;28;20389;-56
2021/12/04 03:21:20;;;;;;;32.10;16.23;;;;;;;;;;5035718;28;20045;-54
2021/12/04 03:23:56;;;;;;;30.88;15.40;;;;;;;;;;5035702;28;20080;-56
2021/12/04 03:26:23;;;;;;;28.63;14.95;;;;;;;;;;5035566;28;20029;-57
2021/12/04 03:28:50;;;;;;;40.40;16.02;;;;;;;;;;5034437;28;20496;-56
2021/12/04 03:42:13;;;;;;;37.17;19.05;;;;;;;;;;5035541;28;20227;-55
2021/12/04 03:44:39;;;;;;;42.05;20.95;;;;;;;;;;5035653;28;20037;-54
2021/12/04 03:47:07;;;;;;;44.10;22.80;;;;;;;;;;5035074;28;20528;-56
2021/12/04 03:49:33;;;;;;;45.92;24.45;;;;;;;;;;5035616;28;20017;-59
2021/12/04 03:51:59;;;;;;;46.95;22.00;;;;;;;;;;5035074;28;20109;-56
2021/12/04 03:54:25;;;;;;;40.08;20.50;;;;;;;;;;5035295;28;20026;-56
2021/12/04 03:57:01;;;;;;;43.35;22.67;;;;;;;;;;5035155;28;20389;-56
2021/12/04 03:59:27;;;;;;;40.03;20.08;;;;;;;;;;5035055;28;20029;-56
2021/12/04 04:01:53;;;;;;;44.63;20.70;;;;;;;;;;5034909;28;20053;-56
2021/12/04 04:04:19;;;;;;;48.67;21.08;;;;;;;;;;5034966;28;20100;-46
2021/12/04 04:06:45;;;;;;;51.65;21.35;;;;;;;;;;5034720;28;20029;-56
2021/12/04 04:09:12;;;;;;;47.80;21.63;;;;;;;;;;5034748;28;20480;-56
2021/12/04 04:11:38;;;;;;;63.30;24.30;;;;;;;;;;5034853;28;20466;-57
2021/12/04 04:14:05;;;;;;;50.45;22.45;;;;;;;;;;5034311;28;20537;-55
2021/12/04 04:16:31;;;;;;;58.72;22.88;;;;;;;;;;5034580;28;20448;-51
2021/12/04 04:18:57;;;;;;;51.55;20.38;;;;;;;;;;5034636;28;20025;-56
2021/12/04 04:21:23;;;;;;;48.88;20.45;;;;;;;;;;5034603;28;20029;-55
2021/12/04 04:23:49;;;;;;;55.58;22.83;;;;;;;;;;5034681;28;20315;-53
2021/12/04 04:26:15;;;;;;;46.00;21.83;;;;;;;;;;5034327;28;20040;-54
2021/12/04 04:28:41;;;;;;;56.33;26.60;;;;;;;;;;5034320;28;20532;-54
2021/12/04 04:31:09;;;;;;;59.10;26.40;;;;;;;;;;5034257;28;20021;-54
2021/12/04 04:33:39;;;;;;;69.40;27.48;;;;;;;;;;5034376;28;20100;-55
2021/12/04 04:36:35;;;;;;;46.70;25.95;;;;;;;;;;5034444;28;20018;-55
2021/12/04 05:11:22;;;;;;;68.13;27.85;;;;;;;;;;5033950;28;20524;-54
2021/12/04 05:13:48;;;;;;;57.13;24.45;;;;;;;;;;5033514;28;20026;-50
2021/12/04 05:16:19;;;;;;;49.80;22.35;;;;;;;;;;5033420;28;20059;-56
2021/12/04 05:18:56;;;;;;;54.97;26.10;;;;;;;;;;5033919;28;20021;-57
2021/12/04 05:21:22;;;;;;;60.50;26.17;;;;;;;;;;5033712;28;20443;-55
2021/12/04 05:23:55;;;;;;;57.78;26.40;;;;;;;;;;5033375;28;20105;-51
2021/12/04 05:26:25;;;;;;;62.55;28.35;;;;;;;;;;5033106;28;20112;-48
2021/12/04 05:28:52;;;;;;;56.65;27.75;;;;;;;;;;5032056;28;20126;-54
2021/12/04 05:31:18;;;;;;;69.07;29.98;;;;;;;;;;5032171;28;20377;-56
2021/12/04 05:33:45;;;;;;;110.15;37.85;;;;;;;;;;5033314;28;20021;-56
2021/12/04 05:36:11;;;;;;;90.40;34.88;;;;;;;;;;5033571;28;20029;-57
2021/12/04 05:38:38;;;;;;;78.53;30.48;;;;;;;;;;5035425;28;20364;-56
2021/12/04 05:41:04;;;;;;;208.85;83.05;;;;;;;;;;5033475;28;20026;-57
2021/12/04 05:43:31;;;;;;;318.13;125.03;;;;;;;;;;5033187;28;20021;-57
2021/12/04 05:46:18;;;;;;;195.73;86.82;;;;;;;;;;5033291;28;20032;-56
2021/12/04 05:56:16;;;;;;;130.02;48.58;;;;;;;;;;5033295;28;20037;-57
2021/12/04 05:58:42;;;;;;;101.93;43.03;;;;;;;;;;5033030;28;20072;-54
2021/12/04 06:01:09;;;;;;;97.53;41.78;;;;;;;;;;5033060;28;20028;-59
2021/12/04 06:03:35;;;;;;;104.75;43.25;;;;;;;;;;5033373;28;20458;-56
2021/12/04 06:06:02;;;;;;;109.40;48.53;;;;;;;;;;5031983;28;20033;-55
2021/12/04 06:08:28;;;;;;;117.93;48.70;;;;;;;;;;5033330;28;20045;-57
2021/12/04 06:10:55;;;;;;;132.35;55.47;;;;;;;;;;5031734;28;20437;-56
2021/12/04 06:13:21;;;;;;;110.40;48.92;;;;;;;;;;5032891;28;20037;-56
2021/12/04 06:15:47;;;;;;;87.78;40.10;;;;;;;;;;5032952;28;20049;-57
2021/12/04 06:18:15;;;;;;;91.80;41.45;;;;;;;;;;5033154;28;20432;-57
2021/12/04 06:23:29;;;;;;;144.45;65.30;;;;;;;;;;5033204;28;20488;-55
2021/12/04 06:25:55;;;;;;;110.50;48.92;;;;;;;;;;5032888;28;20083;-56
2021/12/04 06:28:21;;;;;;;86.65;39.13;;;;;;;;;;5032863;28;20029;-53
2021/12/04 06:30:47;;;;;;;63.65;29.80;;;;;;;;;;5032900;28;20052;-54
2021/12/04 06:33:18;;;;;;;73.30;36.95;;;;;;;;;;5033056;28;20018;-56
2021/12/04 06:35:46;;;;;;;62.17;32.15;;;;;;;;;;5032786;28;20018;-51
2021/12/04 06:38:14;;;;;;;55.40;31.27;;;;;;;;;;5034457;28;20465;-53
2021/12/04 06:40:40;;;;;;;69.38;37.28;;;;;;;;;;5036424;28;20041;-53
2021/12/04 06:43:07;;;;;;;54.25;26.58;;;;;;;;;;5036267;28;20049;-51
2021/12/04 06:45:35;;;;;;;52.95;26.85;;;;;;;;;;5036411;28;20466;-53
2021/12/04 06:51:04;;;;;;;58.78;28.85;;;;;;;;;;5027829;28;20025;-53
2021/12/04 06:53:38;;;;;;;56.72;29.67;;;;;;;;;;5036197;28;20041;-52
2021/12/04 06:56:07;;;;;;;65.10;33.92;;;;;;;;;;5036051;28;20488;-51
2021/12/04 06:58:33;;;;;;;62.10;32.28;;;;;;;;;;5035846;28;20029;-53
2021/12/04 07:00:59;;;;;;;72.05;38.92;;;;;;;;;;5035992;28;20065;-53
2021/12/04 07:03:25;;;;;;;96.82;45.97;;;;;;;;;;5036168;28;20100;-53
2021/12/04 07:05:52;;;;;;;91.00;43.83;;;;;;;;;;5035809;28;20537;-53
2021/12/04 07:08:18;;;;;;;90.05;44.25;;;;;;;;;;5036084;28;20045;-49
2021/12/04 07:10:44;;;;;;;82.72;42.50;;;;;;;;;;5035991;28;20025;-52
2021/12/04 07:13:10;;;;;;;72.65;39.58;;;;;;;;;;5035676;28;20426;-49
2021/12/04 07:15:36;;;;;;;53.60;29.90;;;;;;;;;;5035765;28;20125;-52
2021/12/04 07:18:03;;;;;;;57.55;31.92;;;;;;;;;;5035846;28;20034;-53
2021/12/04 07:20:30;;;;;;;72.18;36.47;;;;;;;;;;5035759;28;20026;-51
2021/12/04 07:22:59;;;;;;;67.43;37.00;;;;;;;;;;5035788;28;20075;-53
2021/12/04 07:25:26;;;;;;;49.03;27.80;;;;;;;;;;5035601;28;20022;-53
2021/12/04 07:27:54;;;;;;;52.42;29.42;;;;;;;;;;5035656;28;20030;-54
2021/12/04 07:30:21;;;;;;;82.30;41.70;;;;;;;;;;5035532;28;20025;-49
2021/12/04 07:32:47;;;;;;;89.85;42.60;;;;;;;;;;5035457;28;20026;-50
2021/12/04 07:35:14;;;;;;;95.47;44.58;;;;;;;;;;5035347;28;20021;-49
2021/12/04 07:37:41;;;;;;;94.50;42.58;;;;;;;;;;5035583;28;20020;-53
2021/12/04 07:40:07;;;;;;;84.80;37.00;;;;;;;;;;5035427;28;20496;-52
2021/12/04 07:42:33;;;;;;;83.80;36.97;;;;;;;;;;5035231;28;20025;-53
2021/12/04 07:45:00;;;;;;;105.10;46.00;;;;;;;;;;5035505;28;20125;-53
2021/12/04 07:47:26;;;;;;;106.53;48.67;;;;;;;;;;5035480;28;20040;-52
2021/12/04 07:49:53;;;;;;;113.03;49.33;;;;;;;;;;5034655;28;20485;-53
2021/12/04 07:52:19;;;;;;;115.20;46.75;;;;;;;;;;5033952;28;20192;-51
2021/12/04 07:54:48;;;;;;;70.63;34.90;;;;;;;;;;5035167;28;20029;-51
2021/12/04 07:57:14;;;;;;;62.38;31.67;;;;;;;;;;5035035;28;20025;-51
2021/12/04 07:59:41;;;;;;;61.20;30.65;;;;;;;;;;5035050;28;20108;-49
2021/12/04 08:02:08;;;;;;;36.53;22.10;;;;;;;;;;5035173;28;20029;-50
2021/12/04 08:04:34;;;;;;;36.15;21.00;;;;;;;;;;5035005;28;20025;-49
2021/12/04 08:07:00;;;;;;;38.03;22.90;;;;;;;;;;5034806;28;20045;-53
2021/12/04 08:09:26;;;;;;;41.78;23.65;;;;;;;;;;5034937;28;20026;-51
2021/12/04 08:11:52;;;;;;;45.40;23.92;;;;;;;;;;5034809;28;20029;-48
2021/12/04 08:14:19;;;;;;;40.72;26.27;;;;;;;;;;5034491;28;20462;-50
2021/12/04 08:16:46;;;;;;;43.17;26.58;;;;;;;;;;5034777;28;20068;-50
2021/12/04 08:19:13;;;;;;;44.78;27.83;;;;;;;;;;5034634;28;20029;-51
2021/12/04 08:21:39;;;;;;;36.33;24.15;;;;;;;;;;5034760;28;20473;-51
2021/12/04 08:24:06;;;;;;;40.72;24.15;;;;;;;;;;5035247;28;20028;-53
2021/12/04 08:26:33;;;;;;;32.38;21.77;;;;;;;;;;5034377;28;20034;-51
2021/12/04 08:28:59;;;;;;;36.00;18.65;;;;;;;;;;5034568;28;20017;-53
2021/12/04 08:31:25;;;;;;;30.42;18.10;;;;;;;;;;5034765;28;20056;-53
2021/12/04 08:33:51;;;;;;;28.42;17.30;;;;;;;;;;5034276;28;20028;-52
2021/12/04 08:36:21;;;;;;;34.30;19.52;;;;;;;;;;5034406;28;20113;-53
2021/12/04 08:38:47;;;;;;;29.25;17.02;;;;;;;;;;5034288;28;20147;-52
2021/12/04 08:41:17;;;;;;;34.33;21.25;;;;;;;;;;5034147;28;20034;-48
2021/12/04 08:43:43;;;;;;;41.05;22.85;;;;;;;;;;5034085;28;20048;-50
2021/12/04 08:46:10;;;;;;;33.78;20.02;;;;;;;;;;5034220;28;20543;-49
2021/12/04 08:48:36;;;;;;;31.38;18.67;;;;;;;;;;5034143;28;20159;-51
2021/12/04 08:51:04;;;;;;;31.42;20.77;;;;;;;;;;5034256;28;20029;-49
2021/12/04 08:53:32;;;;;;;47.13;27.73;;;;;;;;;;5034087;28;20079;-51
2021/12/04 08:55:58;;;;;;;58.47;32.25;;;;;;;;;;5034070;28;20408;-44
2021/12/04 08:58:25;;;;;;;36.88;19.52;;;;;;;;;;5033704;28;20025;-51
2021/12/04 09:00:53;;;;;;;57.78;33.00;;;;;;;;;;5033825;28;20033;-50
2021/12/04 09:03:24;;;;;;;24.75;15.70;;;;;;;;;;5033242;28;20064;-51
2021/12/04 09:05:50;;;;;;;37.10;20.75;;;;;;;;;;5033366;28;20021;-50
2021/12/04 09:08:17;;;;;;;36.05;20.63;;;;;;;;;;5033221;28;20393;-54
2021/12/04 09:10:46;;;;;;;36.97;21.25;;;;;;;;;;5033195;28;20041;-54
2021/12/04 09:13:12;;;;;;;28.23;17.63;;;;;;;;;;5032987;28;20064;-51
2021/12/04 09:15:39;;;;;;;33.08;19.05;;;;;;;;;;5033038;28;20046;-51
2021/12/04 09:18:06;;;;;;;32.03;19.05;;;;;;;;;;5033137;28;20500;-47
2021/12/04 09:20:33;;;;;;;34.92;19.10;;;;;;;;;;5033107;28;20057;-47
2021/12/04 09:22:59;;;;;;;38.10;21.50;;;;;;;;;;5033176;28;20461;-48
2021/12/04 09:25:27;;;;;;;42.35;24.30;;;;;;;;;;5032954;28;20087;-45
2021/12/04 10:02:42;;;;;;;22.90;14.65;;;;;;;;;;5030684;28;20021;-51
2021/12/04 10:34:54;;;;;;;35.83;20.05;;;;;;;;;;5035108;28;20026;-51
2021/12/04 10:37:28;;;;;;;42.42;23.00;;;;;;;;;;5030420;28;20401;-45
2021/12/04 10:39:56;;;;;;;44.15;23.95;;;;;;;;;;5029804;28;20107;-51
2021/12/04 10:42:31;;;;;;;48.47;25.88;;;;;;;;;;5032323;28;20030;-50
2021/12/04 10:44:57;;;;;;;50.05;26.65;;;;;;;;;;5032376;28;20489;-48
2021/12/04 10:47:26;;;;;;;59.90;27.95;;;;;;;;;;5032593;28;20073;-41
2021/12/04 10:55:15;;;;;;;50.47;26.63;;;;;;;;;;5030894;28;20034;-49
2021/12/04 11:03:15;;;;;;;34.28;20.80;;;;;;;;;;5029601;28;20385;-42
2021/12/04 11:06:07;;;;;;;44.85;22.73;;;;;;;;;;5031846;28;20028;-45
2021/12/04 11:36:27;;;;;;;42.30;21.90;;;;;;;;;;4937246;29;20046;-43
2021/12/04 11:46:42;;;;;;;40.13;20.50;;;;;;;;;;4936245;29;20086;-43
2021/12/04 11:49:08;;;;;;;;;;;;;;;;;;4937055;29;20538;-41
2021/12/04 11:51:34;;;;;;;39.38;18.70;;;;;;;;;;4936661;29;19910;-42
2021/12/04 11:54:10;;;;;;;38.25;19.25;;;;;;;;;;4936701;28;20043;-43
2021/12/04 11:56:36;;;;;;;39.85;18.40;;;;;;;;;;4936654;28;20577;-43
2021/12/04 11:59:02;;;;;;;40.88;20.05;;;;;;;;;;4939568;28;20042;-42
2021/12/04 12:01:33;;;;;;;37.75;19.25;;;;;;;;;;4942669;28;20030;-42
2021/12/04 12:04:08;;;;;;;30.00;16.42;;;;;;;;;;4942962;28;20091;-42
2021/12/04 12:06:39;;;;;;;43.70;21.25;;;;;;;;;;4948752;28;20434;-42
2021/12/04 12:09:07;;;;;;;39.97;20.70;;;;;;;;;;5030875;28;20025;-43
2021/12/04 12:11:35;;;;;;;37.72;18.17;;;;;;;;;;5030571;28;20038;-42
2021/12/04 12:14:11;;;;;;;35.55;16.70;;;;;;;;;;5030738;28;20029;-41
2021/12/04 12:16:41;;;;;;;43.35;20.63;;;;;;;;;;5028069;28;20060;-42
2021/12/04 12:19:11;;;;;;;69.88;31.00;;;;;;;;;;5030035;28;20033;-42
2021/12/04 12:21:52;;;;;;;38.95;20.10;;;;;;;;;;5007010;28;20447;-42
2021/12/04 12:37:49;;;;;;;38.80;19.65;;;;;;;;;;5052998;28;20040;-43
2021/12/04 12:40:16;;;;;;;40.45;20.10;;;;;;;;;;5054112;28;20024;-43
2021/12/04 12:42:42;;;;;;;32.63;19.30;;;;;;;;;;5044319;28;20386;-43
2021/12/04 12:45:14;;;;;;;44.60;21.23;;;;;;;;;;5033847;28;20025;-43
2021/12/04 12:47:40;;;;;;;;;;;;;;;;;;5033919;28;20235;-41
2021/12/04 12:50:08;;;;;;;39.45;21.13;;;;;;;;;;5033608;28;20033;-43
2021/12/04 12:52:42;;;;;;;37.53;20.88;;;;;;;;;;5033566;28;20497;-43
2021/12/04 12:55:12;;;;;;;44.00;22.05;;;;;;;;;;5033542;28;20032;-43
2021/12/04 12:57:42;;;;;;;40.65;22.67;;;;;;;;;;5033375;28;20013;-42
2021/12/04 13:14:23;;;;;;;51.35;25.08;;;;;;;;;;5010929;28;20042;-42
2021/12/04 13:16:57;;;;;;;47.38;24.92;;;;;;;;;;5011327;28;20034;-44
2021/12/04 13:19:25;;;;;;;48.03;24.85;;;;;;;;;;5011166;28;20041;-43
2021/12/04 13:21:53;;;;;;;42.80;21.63;;;;;;;;;;5011251;28;20037;-42
2021/12/04 13:24:22;;;;;;;41.22;22.98;;;;;;;;;;5011457;28;20028;-42
2021/12/04 13:26:51;;;;;;;46.47;25.40;;;;;;;;;;5008958;28;20038;-44
2021/12/04 13:29:21;;;;;;;47.35;26.60;;;;;;;;;;5011211;28;20029;-44
2021/12/04 13:31:47;;;;;;;48.25;24.50;;;;;;;;;;5011174;28;20034;-44
2021/12/04 13:34:15;;;;;;;47.40;25.23;;;;;;;;;;5011186;28;20040;-43
2021/12/04 13:36:45;;;;;;;41.58;22.58;;;;;;;;;;5011663;28;20056;-44
2021/12/04 13:39:12;;;;;;;44.58;24.45;;;;;;;;;;5010817;28;20048;-44
2021/12/04 13:41:39;;;;;;;40.28;23.65;;;;;;;;;;5011058;28;20058;-44
2021/12/04 13:44:07;;;;;;;42.95;22.75;;;;;;;;;;5010886;28;20378;-44
2021/12/04 13:46:47;;;;;;;49.80;25.08;;;;;;;;;;5010525;28;20040;-44
2021/12/04 13:49:20;;;;;;;48.65;26.17;;;;;;;;;;5009740;28;20033;-43
2021/12/04 13:51:57;;;;;;;43.45;24.20;;;;;;;;;;5012777;28;20029;-44
2021/12/04 13:54:28;;;;;;;48.35;26.27;;;;;;;;;;5012780;28;20407;-43
2021/12/04 13:56:54;;;;;;;57.70;29.43;;;;;;;;;;5012998;28;20026;-44
2021/12/04 13:59:24;;;;;;;53.97;30.65;;;;;;;;;;5012965;28;20049;-43
2021/12/04 14:01:51;;;;;;;53.72;28.25;;;;;;;;;;5012913;28;20087;-43
2021/12/04 14:04:19;;;;;;;60.47;31.38;;;;;;;;;;5012880;28;20026;-43
2021/12/04 14:06:53;;;;;;;55.92;31.13;;;;;;;;;;5012706;28;20103;-43
2021/12/04 14:09:22;;;;;;;47.33;25.60;;;;;;;;;;5012886;28;20025;-43
2021/12/04 14:11:48;;;;;;;57.63;32.40;;;;;;;;;;5013248;28;20045;-43
2021/12/04 14:14:19;;;;;;;64.03;32.83;;;;;;;;;;5015327;28;20026;-43
2021/12/04 14:16:51;;;;;;;56.53;30.60;;;;;;;;;;5032827;28;20053;-43
2021/12/04 14:19:21;;;;;;;85.50;44.30;;;;;;;;;;5032860;28;20100;-46
2021/12/04 14:21:55;;;;;;;65.05;33.28;;;;;;;;;;5032754;28;20049;-44
2021/12/04 14:24:29;;;;;;;40.75;24.10;;;;;;;;;;5032927;28;20037;-44
2021/12/04 14:26:56;;;;;;;43.72;24.52;;;;;;;;;;5032883;28;20083;-44
2021/12/04 14:29:26;;;;;;;41.08;23.65;;;;;;;;;;5032768;28;20481;-44
2021/12/04 14:31:52;;;;;;;50.55;24.73;;;;;;;;;;5032794;28;20033;-44
2021/12/04 14:34:23;;;;;;;55.97;28.98;;;;;;;;;;5025020;28;20091;-42
2021/12/04 14:36:58;;;;;;;48.38;25.20;;;;;;;;;;5028546;28;20419;-42
2021/12/04 14:39:25;;;;;;;66.72;30.60;;;;;;;;;;5028642;28;20192;-41
2021/12/04 14:41:51;;;;;;;66.35;35.20;;;;;;;;;;5027030;28;20029;-42
2021/12/04 14:44:17;;;;;;;68.28;34.92;;;;;;;;;;5028033;28;20029;-41
2021/12/04 14:46:43;;;;;;;52.03;26.95;;;;;;;;;;5028501;28;20033;-43
2021/12/04 14:49:11;;;;;;;52.20;28.30;;;;;;;;;;5028449;28;20322;-42
2021/12/04 14:51:37;;;;;;;50.05;26.33;;;;;;;;;;5028725;28;20025;-43
2021/12/04 14:54:03;;;;;;;62.70;30.90;;;;;;;;;;5028495;28;20029;-43
2021/12/04 14:56:31;;;;;;;52.92;29.00;;;;;;;;;;5028330;28;20206;-42
2021/12/04 14:59:00;;;;;;;62.55;33.35;;;;;;;;;;5029687;28;20036;-43
2021/12/04 15:01:34;;;;;;;60.83;30.15;;;;;;;;;;5031131;28;20021;-43
2021/12/04 15:04:03;;;;;;;57.35;29.42;;;;;;;;;;5030845;28;20374;-43
2021/12/04 15:06:30;;;;;;;60.25;29.05;;;;;;;;;;5031697;28;20036;-43
2021/12/04 15:08:59;;;;;;;64.03;31.88;;;;;;;;;;5031074;28;20022;-47
2021/12/04 15:11:31;;;;;;;88.25;43.80;;;;;;;;;;5031641;28;20063;-42
2021/12/04 15:14:03;;;;;;;75.95;40.03;;;;;;;;;;5032051;28;20025;-43
2021/12/04 15:19:06;;;;;;;71.82;37.47;;;;;;;;;;5029263;28;20052;-43
2021/12/04 15:21:40;;;;;;;56.33;27.25;;;;;;;;;;5030640;28;20836;-43
2021/12/04 15:24:06;;;;;;;53.75;27.88;;;;;;;;;;5029802;28;20318;-42
2021/12/04 15:26:32;;;;;;;54.67;28.83;;;;;;;;;;5030678;28;20455;-44
2021/12/04 15:28:58;;;;;;;52.83;27.45;;;;;;;;;;5029632;28;20021;-45
2021/12/04 15:31:26;;;;;;;55.97;29.70;;;;;;;;;;5031534;28;20516;-42
2021/12/04 15:33:54;;;;;;;81.38;37.03;;;;;;;;;;5031801;28;20033;-43
2021/12/04 15:36:22;;;;;;;72.35;35.55;;;;;;;;;;5031597;28;20018;-43
2021/12/04 15:38:53;;;;;;;54.00;27.92;;;;;;;;;;5029644;28;20021;-46
2021/12/04 15:41:38;;;;;;;93.17;45.93;;;;;;;;;;5031861;28;20083;-43
2021/12/04 15:47:11;;;;;;;60.70;31.95;;;;;;;;;;5031261;28;20382;-44
2021/12/04 15:50:22;;;;;;;67.22;33.42;;;;;;;;;;5027618;28;20033;-45
2021/12/04 15:55:41;;;;;;;54.97;27.35;;;;;;;;;;5000740;28;20030;-43
2021/12/04 15:58:14;;;;;;;52.60;26.63;;;;;;;;;;5000879;28;20441;-43
2021/12/04 16:00:42;;;;;;;55.85;28.38;;;;;;;;;;5001774;28;20076;-43
2021/12/04 16:03:12;;;;;;;72.22;34.15;;;;;;;;;;5000713;28;20029;-44
2021/12/04 16:05:41;;;;;;;70.43;31.45;;;;;;;;;;5000422;28;20041;-44
2021/12/04 16:08:17;;;;;;;64.13;30.45;;;;;;;;;;5000920;28;20034;-43
2021/12/04 16:10:44;;;;;;;66.93;30.30;;;;;;;;;;5000417;28;20026;-44
2021/12/04 16:13:11;;;;;;;64.80;29.67;;;;;;;;;;5000076;28;20964;-44
2021/12/04 16:15:38;;;;;;;58.75;28.55;;;;;;;;;;5000372;28;20053;-45
2021/12/04 16:18:05;;;;;;;56.67;27.60;;;;;;;;;;5000484;28;20029;-45
2021/12/04 16:20:32;;;;;;;52.20;23.25;;;;;;;;;;5000631;28;20045;-43
2021/12/04 16:22:59;;;;;;;56.30;26.27;;;;;;;;;;5000205;28;20056;-44
2021/12/04 16:25:34;;;;;;;48.50;24.50;;;;;;;;;;5000071;28;20041;-45
2021/12/04 16:28:08;;;;;;;53.38;22.90;;;;;;;;;;5001062;28;20162;-46
2021/12/04 16:31:09;;;;;;;51.78;23.35;;;;;;;;;;5000204;28;20529;-45
2021/12/04 16:38:21;;;;;;;43.42;25.25;;;;;;;;;;5028281;28;20400;-43
2021/12/04 16:40:47;;;;;;;55.38;26.60;;;;;;;;;;5030464;28;20024;-45
2021/12/04 16:43:27;;;;;;;51.13;26.73;;;;;;;;;;5030640;28;20443;-44
2021/12/04 16:45:54;;;;;;;47.10;25.70;;;;;;;;;;5029394;28;20049;-45
2021/12/04 16:48:23;;;;;;;66.30;33.30;;;;;;;;;;5030306;28;20043;-45
2021/12/04 16:58:48;;;;;;;59.42;31.10;;;;;;;;;;5028868;28;20536;-45
2021/12/04 17:01:15;;;;;;;65.50;33.30;;;;;;;;;;5030293;28;20023;-44
2021/12/04 17:03:42;;;;;;;54.00;26.90;;;;;;;;;;5030089;28;20566;-45
2021/12/04 17:06:08;;;;;;;47.90;26.85;;;;;;;;;;5030075;28;20112;-44
2021/12/04 17:08:35;;;;;;;45.85;26.55;;;;;;;;;;5029003;28;20044;-44
2021/12/04 17:11:01;;;;;;;55.58;29.00;;;;;;;;;;5029849;28;20968;-47
2021/12/04 17:13:28;;;;;;;54.42;28.85;;;;;;;;;;5030172;28;20339;-44
2021/12/04 17:15:54;;;;;;;93.63;45.45;;;;;;;;;;5026971;28;20103;-43
2021/12/04 17:18:24;;;;;;;71.72;34.45;;;;;;;;;;5030060;28;20821;-46
2021/12/04 17:20:50;;;;;;;81.15;40.88;;;;;;;;;;5029866;28;20035;-44
2021/12/04 17:23:17;;;;;;;112.57;56.45;;;;;;;;;;5028993;28;20029;-44
2021/12/04 17:25:43;;;;;;;78.78;38.47;;;;;;;;;;5028522;28;20634;-44
2021/12/04 17:28:12;;;;;;;65.18;30.65;;;;;;;;;;5029244;28;20037;-42
2021/12/04 17:30:39;;;;;;;59.78;31.35;;;;;;;;;;5025719;28;20021;-43
2021/12/04 17:33:08;;;;;;;72.45;35.50;;;;;;;;;;5029721;28;20035;-44
2021/12/04 17:35:34;;;;;;;50.42;27.70;;;;;;;;;;5029805;28;20039;-43
2021/12/04 17:38:01;;;;;;;54.60;29.13;;;;;;;;;;5029566;28;20032;-43
2021/12/04 17:40:28;;;;;;;61.47;31.60;;;;;;;;;;5028391;28;20033;-42
2021/12/04 17:42:55;;;;;;;59.65;31.58;;;;;;;;;;5028855;28;20028;-43
2021/12/04 17:45:21;;;;;;;69.88;35.88;;;;;;;;;;5029146;28;20021;-44
2021/12/04 17:47:48;;;;;;;62.30;32.22;;;;;;;;;;5026855;28;20099;-44
2021/12/04 17:50:17;;;;;;;69.25;36.17;;;;;;;;;;5029475;28;20852;-43
2021/12/04 17:52:43;;;;;;;62.88;32.03;;;;;;;;;;5029686;28;20021;-44
2021/12/04 17:55:10;;;;;;;86.95;45.03;;;;;;;;;;5029308;28;20017;-43
2021/12/04 17:57:39;;;;;;;99.22;49.45;;;;;;;;;;5029002;28;20860;-45
2021/12/04 18:00:11;;;;;;;74.88;39.00;;;;;;;;;;5029143;28;20033;-44
2021/12/04 18:02:38;;;;;;;69.95;35.33;;;;;;;;;;5029308;28;20025;-45
2021/12/04 18:05:05;;;;;;;71.30;33.80;;;;;;;;;;5028060;28;20083;-44
2021/12/04 18:07:32;;;;;;;72.80;36.70;;;;;;;;;;5028198;28;20047;-45
2021/12/04 18:10:02;;;;;;;68.95;36.13;;;;;;;;;;5029324;28;20369;-45